Aviation Digital Data Service (ADDS)

Output produced by METARs form (1548 UTC 09 February 2016)
found at http://aviationweather.gov/adds/metars/
 
KBGR 091211Z 0912/1012 36009KT 2SM -SN BR OVC015 
     FM091500 01009KT 5SM -SHSN OVC015 
     FM092200 01006KT P6SM OVC012 
     FM100400 35005KT P6SM OVC020 
     FM100800 VRB03KT P6SM OVC035